sensor_id;sensor_type;location;lat;lon;timestamp;P1;durP1;ratioP1;P2;durP2;ratioP2
63587;SDS011;49966;46.896;18.004;2023-08-12T00:01:22;4.38;;;3.10;;
63587;SDS011;49966;46.896;18.004;2023-08-12T00:03:51;5.18;;;2.92;;
63587;SDS011;49966;46.896;18.004;2023-08-12T00:06:21;3.28;;;2.72;;
63587;SDS011;49966;46.896;18.004;2023-08-12T00:08:50;9.02;;;3.35;;
63587;SDS011;49966;46.896;18.004;2023-08-12T00:11:19;3.72;;;2.83;;
63587;SDS011;49966;46.896;18.004;2023-08-12T00:13:47;4.90;;;2.95;;
63587;SDS011;49966;46.896;18.004;2023-08-12T00:16:16;8.05;;;2.90;;
63587;SDS011;49966;46.896;18.004;2023-08-12T00:18:44;5.60;;;2.90;;
63587;SDS011;49966;46.896;18.004;2023-08-12T00:21:12;5.32;;;3.42;;
63587;SDS011;49966;46.896;18.004;2023-08-12T00:23:41;5.30;;;3.22;;
63587;SDS011;49966;46.896;18.004;2023-08-12T00:26:10;4.78;;;3.13;;
63587;SDS011;49966;46.896;18.004;2023-08-12T00:28:40;6.45;;;3.20;;
63587;SDS011;49966;46.896;18.004;2023-08-12T00:31:08;6.88;;;2.90;;
63587;SDS011;49966;46.896;18.004;2023-08-12T00:33:36;5.40;;;3.10;;
63587;SDS011;49966;46.896;18.004;2023-08-12T00:36:05;4.55;;;3.08;;
63587;SDS011;49966;46.896;18.004;2023-08-12T00:38:33;4.90;;;3.20;;
63587;SDS011;49966;46.896;18.004;2023-08-12T00:41:03;4.85;;;3.17;;
63587;SDS011;49966;46.896;18.004;2023-08-12T00:43:31;7.30;;;3.10;;
63587;SDS011;49966;46.896;18.004;2023-08-12T00:46:00;4.68;;;3.08;;
63587;SDS011;49966;46.896;18.004;2023-08-12T00:48:29;4.45;;;2.90;;
63587;SDS011;49966;46.896;18.004;2023-08-12T00:50:57;5.22;;;3.15;;
63587;SDS011;49966;46.896;18.004;2023-08-12T00:53:25;3.22;;;2.90;;
63587;SDS011;49966;46.896;18.004;2023-08-12T00:55:53;5.38;;;3.10;;
63587;SDS011;49966;46.896;18.004;2023-08-12T00:58:22;7.65;;;3.03;;
63587;SDS011;49966;46.896;18.004;2023-08-12T01:00:50;4.90;;;3.20;;
63587;SDS011;49966;46.896;18.004;2023-08-12T01:03:20;3.83;;;2.78;;
63587;SDS011;49966;46.896;18.004;2023-08-12T01:05:49;6.07;;;2.92;;
63587;SDS011;49966;46.896;18.004;2023-08-12T01:08:17;6.38;;;2.97;;
63587;SDS011;49966;46.896;18.004;2023-08-12T01:10:46;8.65;;;3.28;;
63587;SDS011;49966;46.896;18.004;2023-08-12T01:13:24;6.63;;;3.13;;
63587;SDS011;49966;46.896;18.004;2023-08-12T01:16:06;6.68;;;3.10;;
63587;SDS011;49966;46.896;18.004;2023-08-12T01:18:38;5.55;;;3.08;;
63587;SDS011;49966;46.896;18.004;2023-08-12T01:21:09;3.38;;;2.92;;
63587;SDS011;49966;46.896;18.004;2023-08-12T01:23:44;6.53;;;3.17;;
63587;SDS011;49966;46.896;18.004;2023-08-12T01:26:12;5.13;;;2.92;;
63587;SDS011;49966;46.896;18.004;2023-08-12T01:28:40;5.53;;;2.95;;
63587;SDS011;49966;46.896;18.004;2023-08-12T01:31:11;4.03;;;2.90;;
63587;SDS011;49966;46.896;18.004;2023-08-12T01:33:44;6.40;;;3.38;;
63587;SDS011;49966;46.896;18.004;2023-08-12T01:36:17;3.63;;;3.00;;
63587;SDS011;49966;46.896;18.004;2023-08-12T01:38:49;6.97;;;3.22;;
63587;SDS011;49966;46.896;18.004;2023-08-12T01:41:19;7.22;;;3.03;;
63587;SDS011;49966;46.896;18.004;2023-08-12T01:43:50;5.57;;;3.00;;
63587;SDS011;49966;46.896;18.004;2023-08-12T01:46:18;3.28;;;2.70;;
63587;SDS011;49966;46.896;18.004;2023-08-12T01:48:46;6.85;;;2.90;;
63587;SDS011;49966;46.896;18.004;2023-08-12T01:51:14;6.85;;;3.53;;
63587;SDS011;49966;46.896;18.004;2023-08-12T01:53:43;4.78;;;2.95;;
63587;SDS011;49966;46.896;18.004;2023-08-12T01:56:12;4.97;;;3.00;;
63587;SDS011;49966;46.896;18.004;2023-08-12T01:58:40;4.90;;;3.20;;
63587;SDS011;49966;46.896;18.004;2023-08-12T02:03:59;4.85;;;2.90;;
63587;SDS011;49966;46.896;18.004;2023-08-12T02:06:27;5.05;;;2.88;;
63587;SDS011;49966;46.896;18.004;2023-08-12T02:08:56;4.05;;;2.88;;
63587;SDS011;49966;46.896;18.004;2023-08-12T02:11:25;5.90;;;2.90;;
63587;SDS011;49966;46.896;18.004;2023-08-12T02:13:54;5.28;;;2.97;;
63587;SDS011;49966;46.896;18.004;2023-08-12T02:16:22;5.93;;;2.92;;
63587;SDS011;49966;46.896;18.004;2023-08-12T02:18:50;3.10;;;2.78;;
63587;SDS011;49966;46.896;18.004;2023-08-12T02:21:19;5.00;;;3.00;;
63587;SDS011;49966;46.896;18.004;2023-08-12T02:23:52;3.92;;;2.90;;
63587;SDS011;49966;46.896;18.004;2023-08-12T02:26:20;5.30;;;3.40;;
63587;SDS011;49966;46.896;18.004;2023-08-12T02:28:49;5.60;;;2.90;;
63587;SDS011;49966;46.896;18.004;2023-08-12T02:31:18;5.43;;;2.80;;
63587;SDS011;49966;46.896;18.004;2023-08-12T02:33:46;5.55;;;3.03;;
63587;SDS011;49966;46.896;18.004;2023-08-12T02:36:16;7.93;;;3.20;;
63587;SDS011;49966;46.896;18.004;2023-08-12T02:38:44;3.72;;;2.95;;
63587;SDS011;49966;46.896;18.004;2023-08-12T02:41:12;4.20;;;2.90;;
63587;SDS011;49966;46.896;18.004;2023-08-12T02:43:40;5.45;;;3.30;;
63587;SDS011;49966;46.896;18.004;2023-08-12T02:46:10;5.22;;;3.05;;
63587;SDS011;49966;46.896;18.004;2023-08-12T02:48:39;4.53;;;3.10;;
63587;SDS011;49966;46.896;18.004;2023-08-12T02:51:07;4.35;;;2.92;;
63587;SDS011;49966;46.896;18.004;2023-08-12T02:53:36;4.25;;;3.10;;
63587;SDS011;49966;46.896;18.004;2023-08-12T02:56:05;6.82;;;3.00;;
63587;SDS011;49966;46.896;18.004;2023-08-12T02:58:33;4.47;;;3.10;;
63587;SDS011;49966;46.896;18.004;2023-08-12T03:01:02;3.25;;;2.78;;
63587;SDS011;49966;46.896;18.004;2023-08-12T03:03:32;4.50;;;3.13;;
63587;SDS011;49966;46.896;18.004;2023-08-12T03:06:02;7.85;;;3.08;;
63587;SDS011;49966;46.896;18.004;2023-08-12T03:08:31;8.55;;;3.03;;
63587;SDS011;49966;46.896;18.004;2023-08-12T03:11:00;4.72;;;3.08;;
63587;SDS011;49966;46.896;18.004;2023-08-12T03:13:28;3.22;;;2.88;;
63587;SDS011;49966;46.896;18.004;2023-08-12T03:15:57;8.45;;;3.05;;
63587;SDS011;49966;46.896;18.004;2023-08-12T03:18:25;5.53;;;3.00;;
63587;SDS011;49966;46.896;18.004;2023-08-12T03:20:55;7.03;;;2.97;;
63587;SDS011;49966;46.896;18.004;2023-08-12T03:23:23;4.32;;;2.90;;
63587;SDS011;49966;46.896;18.004;2023-08-12T03:25:52;4.15;;;2.90;;
63587;SDS011;49966;46.896;18.004;2023-08-12T03:28:20;6.72;;;2.97;;
63587;SDS011;49966;46.896;18.004;2023-08-12T03:30:51;5.78;;;2.95;;
63587;SDS011;49966;46.896;18.004;2023-08-12T03:33:20;3.97;;;2.80;;
63587;SDS011;49966;46.896;18.004;2023-08-12T03:35:48;8.20;;;3.17;;
63587;SDS011;49966;46.896;18.004;2023-08-12T03:38:18;8.48;;;3.13;;
63587;SDS011;49966;46.896;18.004;2023-08-12T03:40:46;6.85;;;2.90;;
63587;SDS011;49966;46.896;18.004;2023-08-12T03:43:14;10.63;;;3.00;;
63587;SDS011;49966;46.896;18.004;2023-08-12T03:45:43;4.95;;;3.00;;
63587;SDS011;49966;46.896;18.004;2023-08-12T03:48:12;7.03;;;3.03;;
63587;SDS011;49966;46.896;18.004;2023-08-12T03:50:41;3.40;;;2.97;;
63587;SDS011;49966;46.896;18.004;2023-08-12T03:53:09;4.70;;;3.10;;
63587;SDS011;49966;46.896;18.004;2023-08-12T03:55:39;6.90;;;2.97;;
63587;SDS011;49966;46.896;18.004;2023-08-12T03:58:07;9.60;;;3.60;;
63587;SDS011;49966;46.896;18.004;2023-08-12T04:00:38;4.25;;;3.00;;
63587;SDS011;49966;46.896;18.004;2023-08-12T04:03:08;5.72;;;2.90;;
63587;SDS011;49966;46.896;18.004;2023-08-12T04:05:46;7.88;;;3.13;;
63587;SDS011;49966;46.896;18.004;2023-08-12T04:08:21;6.63;;;3.10;;
63587;SDS011;49966;46.896;18.004;2023-08-12T04:10:52;4.70;;;2.90;;
63587;SDS011;49966;46.896;18.004;2023-08-12T04:13:20;5.78;;;2.95;;
63587;SDS011;49966;46.896;18.004;2023-08-12T04:15:49;6.97;;;3.08;;
63587;SDS011;49966;46.896;18.004;2023-08-12T04:18:20;5.70;;;3.10;;
63587;SDS011;49966;46.896;18.004;2023-08-12T04:20:48;5.25;;;3.00;;
63587;SDS011;49966;46.896;18.004;2023-08-12T04:23:17;2.80;;;2.47;;
63587;SDS011;49966;46.896;18.004;2023-08-12T04:25:46;5.22;;;3.05;;
63587;SDS011;49966;46.896;18.004;2023-08-12T04:28:16;5.50;;;2.80;;
63587;SDS011;49966;46.896;18.004;2023-08-12T04:30:45;5.75;;;2.88;;
63587;SDS011;49966;46.896;18.004;2023-08-12T04:33:15;3.47;;;2.90;;
63587;SDS011;49966;46.896;18.004;2023-08-12T04:35:43;5.25;;;3.13;;
63587;SDS011;49966;46.896;18.004;2023-08-12T04:38:12;7.18;;;3.05;;
63587;SDS011;49966;46.896;18.004;2023-08-12T04:40:42;4.63;;;2.90;;
63587;SDS011;49966;46.896;18.004;2023-08-12T04:43:12;3.58;;;3.05;;
63587;SDS011;49966;46.896;18.004;2023-08-12T04:45:44;4.53;;;2.92;;
63587;SDS011;49966;46.896;18.004;2023-08-12T04:48:12;5.70;;;3.10;;
63587;SDS011;49966;46.896;18.004;2023-08-12T04:50:41;3.60;;;2.85;;
63587;SDS011;49966;46.896;18.004;2023-08-12T04:53:10;8.95;;;2.85;;
63587;SDS011;49966;46.896;18.004;2023-08-12T04:55:38;5.05;;;3.30;;
63587;SDS011;49966;46.896;18.004;2023-08-12T04:58:06;3.33;;;2.70;;
63587;SDS011;49966;46.896;18.004;2023-08-12T05:00:34;4.80;;;3.35;;
63587;SDS011;49966;46.896;18.004;2023-08-12T05:03:05;7.20;;;3.50;;
63587;SDS011;49966;46.896;18.004;2023-08-12T05:05:33;4.68;;;2.95;;
63587;SDS011;49966;46.896;18.004;2023-08-12T05:08:02;5.40;;;3.10;;
63587;SDS011;49966;46.896;18.004;2023-08-12T05:10:30;3.70;;;2.97;;
63587;SDS011;49966;46.896;18.004;2023-08-12T05:12:58;5.82;;;3.35;;
63587;SDS011;49966;46.896;18.004;2023-08-12T05:15:27;4.68;;;3.28;;
63587;SDS011;49966;46.896;18.004;2023-08-12T05:17:55;5.85;;;3.53;;
63587;SDS011;49966;46.896;18.004;2023-08-12T05:20:24;6.50;;;3.28;;
63587;SDS011;49966;46.896;18.004;2023-08-12T05:22:53;5.90;;;3.13;;
63587;SDS011;49966;46.896;18.004;2023-08-12T05:25:23;9.30;;;3.38;;
63587;SDS011;49966;46.896;18.004;2023-08-12T05:27:52;7.07;;;3.20;;
63587;SDS011;49966;46.896;18.004;2023-08-12T05:30:20;5.57;;;2.72;;
63587;SDS011;49966;46.896;18.004;2023-08-12T05:32:48;6.18;;;2.85;;
63587;SDS011;49966;46.896;18.004;2023-08-12T05:35:16;6.15;;;3.25;;
63587;SDS011;49966;46.896;18.004;2023-08-12T05:37:46;5.85;;;3.20;;
63587;SDS011;49966;46.896;18.004;2023-08-12T05:40:14;9.10;;;3.90;;
63587;SDS011;49966;46.896;18.004;2023-08-12T05:42:45;14.05;;;5.55;;
63587;SDS011;49966;46.896;18.004;2023-08-12T05:45:13;7.93;;;4.20;;
63587;SDS011;49966;46.896;18.004;2023-08-12T05:47:42;6.28;;;3.47;;
63587;SDS011;49966;46.896;18.004;2023-08-12T05:50:10;7.78;;;3.35;;
63587;SDS011;49966;46.896;18.004;2023-08-12T05:52:38;11.98;;;4.10;;
63587;SDS011;49966;46.896;18.004;2023-08-12T05:55:08;10.07;;;4.35;;
63587;SDS011;49966;46.896;18.004;2023-08-12T05:57:36;7.28;;;3.67;;
63587;SDS011;49966;46.896;18.004;2023-08-12T06:00:05;23.17;;;5.00;;
63587;SDS011;49966;46.896;18.004;2023-08-12T06:02:34;13.93;;;4.07;;
63587;SDS011;49966;46.896;18.004;2023-08-12T06:05:02;11.27;;;3.40;;
63587;SDS011;49966;46.896;18.004;2023-08-12T06:07:31;8.77;;;3.15;;
63587;SDS011;49966;46.896;18.004;2023-08-12T06:09:59;5.28;;;2.72;;
63587;SDS011;49966;46.896;18.004;2023-08-12T06:12:29;6.28;;;2.58;;
63587;SDS011;49966;46.896;18.004;2023-08-12T06:14:59;4.97;;;2.60;;
63587;SDS011;49966;46.896;18.004;2023-08-12T06:17:28;4.40;;;2.35;;
63587;SDS011;49966;46.896;18.004;2023-08-12T06:19:56;5.38;;;2.67;;
63587;SDS011;49966;46.896;18.004;2023-08-12T06:22:28;2.40;;;2.20;;
63587;SDS011;49966;46.896;18.004;2023-08-12T06:24:56;3.13;;;2.40;;
63587;SDS011;49966;46.896;18.004;2023-08-12T06:27:24;3.53;;;2.30;;
63587;SDS011;49966;46.896;18.004;2023-08-12T06:29:54;2.80;;;2.42;;
63587;SDS011;49966;46.896;18.004;2023-08-12T06:32:24;3.63;;;2.40;;
63587;SDS011;49966;46.896;18.004;2023-08-12T06:34:52;3.67;;;2.30;;
63587;SDS011;49966;46.896;18.004;2023-08-12T06:37:21;5.93;;;2.40;;
63587;SDS011;49966;46.896;18.004;2023-08-12T06:39:49;5.65;;;2.80;;
63587;SDS011;49966;46.896;18.004;2023-08-12T06:42:20;3.17;;;2.38;;
63587;SDS011;49966;46.896;18.004;2023-08-12T06:44:49;3.83;;;2.60;;
63587;SDS011;49966;46.896;18.004;2023-08-12T06:47:28;3.47;;;2.60;;
63587;SDS011;49966;46.896;18.004;2023-08-12T06:49:56;2.90;;;2.30;;
63587;SDS011;49966;46.896;18.004;2023-08-12T06:52:24;4.03;;;2.72;;
63587;SDS011;49966;46.896;18.004;2023-08-12T06:54:54;3.00;;;2.47;;
63587;SDS011;49966;46.896;18.004;2023-08-12T06:57:23;4.72;;;2.60;;
63587;SDS011;49966;46.896;18.004;2023-08-12T07:00:11;3.53;;;2.63;;
63587;SDS011;49966;46.896;18.004;2023-08-12T07:02:41;3.30;;;2.38;;
63587;SDS011;49966;46.896;18.004;2023-08-12T07:05:09;5.85;;;2.63;;
63587;SDS011;49966;46.896;18.004;2023-08-12T07:07:38;5.28;;;2.78;;
63587;SDS011;49966;46.896;18.004;2023-08-12T07:10:06;5.75;;;2.60;;
63587;SDS011;49966;46.896;18.004;2023-08-12T07:12:35;3.17;;;2.80;;
63587;SDS011;49966;46.896;18.004;2023-08-12T07:15:07;3.65;;;2.70;;
63587;SDS011;49966;46.896;18.004;2023-08-12T07:17:43;4.03;;;2.78;;
63587;SDS011;49966;46.896;18.004;2023-08-12T07:20:12;4.28;;;2.80;;
63587;SDS011;49966;46.896;18.004;2023-08-12T07:22:41;6.63;;;3.10;;
63587;SDS011;49966;46.896;18.004;2023-08-12T07:25:09;5.30;;;2.85;;
63587;SDS011;49966;46.896;18.004;2023-08-12T07:27:38;4.88;;;3.05;;
63587;SDS011;49966;46.896;18.004;2023-08-12T07:30:06;4.38;;;2.92;;
63587;SDS011;49966;46.896;18.004;2023-08-12T07:32:39;5.03;;;2.83;;
63587;SDS011;49966;46.896;18.004;2023-08-12T07:35:09;4.05;;;2.85;;
63587;SDS011;49966;46.896;18.004;2023-08-12T07:37:37;5.60;;;3.05;;
63587;SDS011;49966;46.896;18.004;2023-08-12T07:40:06;3.85;;;2.95;;
63587;SDS011;49966;46.896;18.004;2023-08-12T07:42:35;4.70;;;3.00;;
63587;SDS011;49966;46.896;18.004;2023-08-12T07:45:08;5.00;;;2.95;;
63587;SDS011;49966;46.896;18.004;2023-08-12T07:47:36;5.82;;;2.78;;
63587;SDS011;49966;46.896;18.004;2023-08-12T07:50:06;5.10;;;3.30;;
63587;SDS011;49966;46.896;18.004;2023-08-12T07:52:37;4.55;;;3.00;;
63587;SDS011;49966;46.896;18.004;2023-08-12T07:55:05;6.85;;;3.15;;
63587;SDS011;49966;46.896;18.004;2023-08-12T07:57:34;6.05;;;3.20;;
63587;SDS011;49966;46.896;18.004;2023-08-12T08:00:02;10.48;;;2.92;;
63587;SDS011;49966;46.896;18.004;2023-08-12T08:02:31;4.78;;;3.13;;
63587;SDS011;49966;46.896;18.004;2023-08-12T08:05:00;6.07;;;3.00;;
63587;SDS011;49966;46.896;18.004;2023-08-12T08:07:30;3.95;;;2.88;;
63587;SDS011;49966;46.896;18.004;2023-08-12T08:09:59;4.88;;;3.10;;
63587;SDS011;49966;46.896;18.004;2023-08-12T08:12:27;6.43;;;3.17;;
63587;SDS011;49966;46.896;18.004;2023-08-12T08:14:55;8.15;;;3.30;;
63587;SDS011;49966;46.896;18.004;2023-08-12T08:17:24;4.57;;;3.00;;
63587;SDS011;49966;46.896;18.004;2023-08-12T08:19:52;7.15;;;3.15;;
63587;SDS011;49966;46.896;18.004;2023-08-12T08:22:20;10.48;;;3.65;;
63587;SDS011;49966;46.896;18.004;2023-08-12T08:24:50;5.47;;;3.13;;
63587;SDS011;49966;46.896;18.004;2023-08-12T08:27:18;11.15;;;3.50;;
63587;SDS011;49966;46.896;18.004;2023-08-12T08:29:47;8.00;;;3.40;;
63587;SDS011;49966;46.896;18.004;2023-08-12T08:32:15;5.15;;;3.00;;
63587;SDS011;49966;46.896;18.004;2023-08-12T08:34:44;5.20;;;3.15;;
63587;SDS011;49966;46.896;18.004;2023-08-12T08:37:12;7.28;;;3.20;;
63587;SDS011;49966;46.896;18.004;2023-08-12T08:39:40;4.68;;;3.00;;
63587;SDS011;49966;46.896;18.004;2023-08-12T08:42:10;6.60;;;3.78;;
63587;SDS011;49966;46.896;18.004;2023-08-12T08:44:40;5.43;;;3.33;;
63587;SDS011;49966;46.896;18.004;2023-08-12T08:47:09;3.67;;;3.17;;
63587;SDS011;49966;46.896;18.004;2023-08-12T08:49:41;3.65;;;2.90;;
63587;SDS011;49966;46.896;18.004;2023-08-12T08:52:09;7.20;;;3.10;;
63587;SDS011;49966;46.896;18.004;2023-08-12T08:54:39;6.30;;;3.22;;
63587;SDS011;49966;46.896;18.004;2023-08-12T08:57:07;7.90;;;3.00;;
63587;SDS011;49966;46.896;18.004;2023-08-12T08:59:48;3.55;;;2.80;;
63587;SDS011;49966;46.896;18.004;2023-08-12T09:02:23;5.78;;;3.00;;
63587;SDS011;49966;46.896;18.004;2023-08-12T09:04:52;5.13;;;2.97;;
63587;SDS011;49966;46.896;18.004;2023-08-12T09:07:22;4.60;;;3.20;;
63587;SDS011;49966;46.896;18.004;2023-08-12T09:09:52;7.40;;;2.95;;
63587;SDS011;49966;46.896;18.004;2023-08-12T09:12:20;4.47;;;2.92;;
63587;SDS011;49966;46.896;18.004;2023-08-12T09:14:51;4.72;;;2.85;;
63587;SDS011;49966;46.896;18.004;2023-08-12T09:17:20;8.52;;;2.78;;
63587;SDS011;49966;46.896;18.004;2023-08-12T09:19:48;5.30;;;3.20;;
63587;SDS011;49966;46.896;18.004;2023-08-12T09:22:17;8.05;;;4.50;;
63587;SDS011;49966;46.896;18.004;2023-08-12T09:24:46;7.90;;;2.95;;
63587;SDS011;49966;46.896;18.004;2023-08-12T09:27:17;4.10;;;2.70;;
63587;SDS011;49966;46.896;18.004;2023-08-12T09:29:46;5.45;;;2.70;;
63587;SDS011;49966;46.896;18.004;2023-08-12T09:32:17;6.35;;;3.03;;
63587;SDS011;49966;46.896;18.004;2023-08-12T09:34:46;4.32;;;2.75;;
63587;SDS011;49966;46.896;18.004;2023-08-12T09:37:15;6.43;;;2.63;;
63587;SDS011;49966;46.896;18.004;2023-08-12T09:39:44;4.90;;;2.78;;
63587;SDS011;49966;46.896;18.004;2023-08-12T09:42:12;6.95;;;2.53;;
63587;SDS011;49966;46.896;18.004;2023-08-12T09:44:41;4.40;;;2.50;;
63587;SDS011;49966;46.896;18.004;2023-08-12T09:47:09;5.35;;;2.60;;
63587;SDS011;49966;46.896;18.004;2023-08-12T09:49:39;6.85;;;2.67;;
63587;SDS011;49966;46.896;18.004;2023-08-12T09:52:08;4.15;;;2.60;;
63587;SDS011;49966;46.896;18.004;2023-08-12T09:54:37;3.80;;;2.65;;
63587;SDS011;49966;46.896;18.004;2023-08-12T09:57:06;5.70;;;2.58;;
63587;SDS011;49966;46.896;18.004;2023-08-12T09:59:36;3.20;;;2.70;;
63587;SDS011;49966;46.896;18.004;2023-08-12T10:02:07;3.13;;;2.42;;
63587;SDS011;49966;46.896;18.004;2023-08-12T10:04:46;4.43;;;2.40;;
63587;SDS011;49966;46.896;18.004;2023-08-12T10:07:18;3.92;;;2.40;;
63587;SDS011;49966;46.896;18.004;2023-08-12T10:09:47;7.25;;;3.10;;
63587;SDS011;49966;46.896;18.004;2023-08-12T10:12:16;3.50;;;2.40;;
63587;SDS011;49966;46.896;18.004;2023-08-12T10:15:04;2.95;;;2.40;;
63587;SDS011;49966;46.896;18.004;2023-08-12T10:17:35;3.45;;;2.40;;
63587;SDS011;49966;46.896;18.004;2023-08-12T10:20:12;5.33;;;2.50;;
63587;SDS011;49966;46.896;18.004;2023-08-12T10:22:41;4.97;;;2.50;;
63587;SDS011;49966;46.896;18.004;2023-08-12T10:25:11;3.72;;;2.58;;
63587;SDS011;49966;46.896;18.004;2023-08-12T10:27:41;5.00;;;2.50;;
63587;SDS011;49966;46.896;18.004;2023-08-12T10:30:10;3.85;;;2.30;;
63587;SDS011;49966;46.896;18.004;2023-08-12T10:32:41;4.18;;;2.50;;
63587;SDS011;49966;46.896;18.004;2023-08-12T10:35:11;7.22;;;2.30;;
63587;SDS011;49966;46.896;18.004;2023-08-12T10:37:39;3.65;;;2.30;;
63587;SDS011;49966;46.896;18.004;2023-08-12T10:40:19;2.50;;;2.20;;
63587;SDS011;49966;46.896;18.004;2023-08-12T10:42:49;2.45;;;2.17;;
63587;SDS011;49966;46.896;18.004;2023-08-12T10:45:17;3.38;;;2.35;;
63587;SDS011;49966;46.896;18.004;2023-08-12T10:47:51;3.13;;;2.10;;
63587;SDS011;49966;46.896;18.004;2023-08-12T10:50:39;4.65;;;2.10;;
63587;SDS011;49966;46.896;18.004;2023-08-12T10:53:22;4.63;;;2.30;;
63587;SDS011;49966;46.896;18.004;2023-08-12T10:55:56;2.85;;;2.00;;
63587;SDS011;49966;46.896;18.004;2023-08-12T10:58:29;6.47;;;2.70;;
63587;SDS011;49966;46.896;18.004;2023-08-12T11:00:58;3.72;;;2.30;;
63587;SDS011;49966;46.896;18.004;2023-08-12T11:03:30;6.47;;;2.20;;
63587;SDS011;49966;46.896;18.004;2023-08-12T11:06:05;2.38;;;2.00;;
63587;SDS011;49966;46.896;18.004;2023-08-12T11:08:35;3.28;;;1.92;;
63587;SDS011;49966;46.896;18.004;2023-08-12T11:11:18;3.10;;;2.15;;
63587;SDS011;49966;46.896;18.004;2023-08-12T11:13:52;2.78;;;2.17;;
63587;SDS011;49966;46.896;18.004;2023-08-12T11:18:59;3.38;;;2.00;;
63587;SDS011;49966;46.896;18.004;2023-08-12T11:21:31;4.63;;;2.20;;
63587;SDS011;49966;46.896;18.004;2023-08-12T11:24:06;2.72;;;1.98;;
63587;SDS011;49966;46.896;18.004;2023-08-12T11:26:36;4.68;;;2.00;;
63587;SDS011;49966;46.896;18.004;2023-08-12T11:29:08;3.65;;;1.98;;
63587;SDS011;49966;46.896;18.004;2023-08-12T11:31:36;3.67;;;2.15;;
63587;SDS011;49966;46.896;18.004;2023-08-12T11:34:05;2.92;;;2.10;;
63587;SDS011;49966;46.896;18.004;2023-08-12T11:36:35;2.58;;;2.08;;
63587;SDS011;49966;46.896;18.004;2023-08-12T11:39:03;2.33;;;2.08;;
63587;SDS011;49966;46.896;18.004;2023-08-12T11:41:33;4.53;;;2.38;;
63587;SDS011;49966;46.896;18.004;2023-08-12T11:44:01;3.75;;;2.10;;
63587;SDS011;49966;46.896;18.004;2023-08-12T11:46:32;5.10;;;2.20;;
63587;SDS011;49966;46.896;18.004;2023-08-12T11:49:00;2.97;;;2.30;;
63587;SDS011;49966;46.896;18.004;2023-08-12T11:51:28;4.10;;;2.22;;
63587;SDS011;49966;46.896;18.004;2023-08-12T11:53:58;4.28;;;2.10;;
63587;SDS011;49966;46.896;18.004;2023-08-12T11:56:27;2.30;;;2.10;;
63587;SDS011;49966;46.896;18.004;2023-08-12T11:58:56;9.05;;;2.30;;
63587;SDS011;49966;46.896;18.004;2023-08-12T12:01:25;4.63;;;2.00;;
63587;SDS011;49966;46.896;18.004;2023-08-12T12:03:55;3.00;;;2.10;;
63587;SDS011;49966;46.896;18.004;2023-08-12T12:06:32;2.35;;;2.15;;
63587;SDS011;49966;46.896;18.004;2023-08-12T12:09:03;4.25;;;2.25;;
63587;SDS011;49966;46.896;18.004;2023-08-12T12:11:32;4.65;;;2.10;;
63587;SDS011;49966;46.896;18.004;2023-08-12T12:14:01;2.30;;;2.05;;
63587;SDS011;49966;46.896;18.004;2023-08-12T12:16:37;2.28;;;2.00;;
63587;SDS011;49966;46.896;18.004;2023-08-12T12:19:12;6.47;;;2.40;;
63587;SDS011;49966;46.896;18.004;2023-08-12T12:21:44;1.98;;;1.88;;
63587;SDS011;49966;46.896;18.004;2023-08-12T12:24:14;3.60;;;2.20;;
63587;SDS011;49966;46.896;18.004;2023-08-12T12:26:43;2.83;;;2.10;;
63587;SDS011;49966;46.896;18.004;2023-08-12T12:29:11;2.67;;;2.20;;
63587;SDS011;49966;46.896;18.004;2023-08-12T12:31:40;4.13;;;2.30;;
63587;SDS011;49966;46.896;18.004;2023-08-12T12:34:09;5.28;;;2.22;;
63587;SDS011;49966;46.896;18.004;2023-08-12T12:36:37;5.18;;;2.33;;
63587;SDS011;49966;46.896;18.004;2023-08-12T12:39:06;3.92;;;2.28;;
63587;SDS011;49966;46.896;18.004;2023-08-12T12:41:36;3.03;;;2.17;;
63587;SDS011;49966;46.896;18.004;2023-08-12T12:44:04;2.97;;;2.20;;
63587;SDS011;49966;46.896;18.004;2023-08-12T12:46:33;2.45;;;2.05;;
63587;SDS011;49966;46.896;18.004;2023-08-12T12:49:01;5.80;;;2.40;;
63587;SDS011;49966;46.896;18.004;2023-08-12T12:51:29;4.13;;;2.30;;
63587;SDS011;49966;46.896;18.004;2023-08-12T12:53:58;5.30;;;2.08;;
63587;SDS011;49966;46.896;18.004;2023-08-12T12:56:26;3.75;;;2.10;;
63587;SDS011;49966;46.896;18.004;2023-08-12T12:58:56;3.90;;;2.20;;
63587;SDS011;49966;46.896;18.004;2023-08-12T13:01:24;3.08;;;2.15;;
63587;SDS011;49966;46.896;18.004;2023-08-12T13:03:52;4.07;;;2.08;;
63587;SDS011;49966;46.896;18.004;2023-08-12T13:06:20;3.15;;;2.10;;
63587;SDS011;49966;46.896;18.004;2023-08-12T13:08:49;3.90;;;2.03;;
63587;SDS011;49966;46.896;18.004;2023-08-12T13:11:18;2.45;;;2.10;;
63587;SDS011;49966;46.896;18.004;2023-08-12T13:13:47;4.10;;;2.33;;
63587;SDS011;49966;46.896;18.004;2023-08-12T13:16:16;3.83;;;2.10;;
63587;SDS011;49966;46.896;18.004;2023-08-12T13:18:45;3.03;;;2.05;;
63587;SDS011;49966;46.896;18.004;2023-08-12T13:21:14;2.75;;;2.08;;
63587;SDS011;49966;46.896;18.004;2023-08-12T13:23:44;2.40;;;2.20;;
63587;SDS011;49966;46.896;18.004;2023-08-12T13:26:18;2.22;;;2.03;;
63587;SDS011;49966;46.896;18.004;2023-08-12T13:28:53;2.53;;;2.00;;
63587;SDS011;49966;46.896;18.004;2023-08-12T13:31:26;4.45;;;2.20;;
63587;SDS011;49966;46.896;18.004;2023-08-12T13:33:54;5.05;;;2.17;;
63587;SDS011;49966;46.896;18.004;2023-08-12T13:36:22;3.95;;;2.10;;
63587;SDS011;49966;46.896;18.004;2023-08-12T13:38:51;4.60;;;2.30;;
63587;SDS011;49966;46.896;18.004;2023-08-12T13:41:19;2.92;;;2.20;;
63587;SDS011;49966;46.896;18.004;2023-08-12T13:43:47;4.90;;;2.20;;
63587;SDS011;49966;46.896;18.004;2023-08-12T13:46:15;5.65;;;2.20;;
63587;SDS011;49966;46.896;18.004;2023-08-12T13:48:45;3.75;;;2.30;;
63587;SDS011;49966;46.896;18.004;2023-08-12T13:51:13;2.17;;;2.00;;
63587;SDS011;49966;46.896;18.004;2023-08-12T13:53:41;5.40;;;2.03;;
63587;SDS011;49966;46.896;18.004;2023-08-12T13:56:10;2.53;;;2.08;;
63587;SDS011;49966;46.896;18.004;2023-08-12T13:58:39;6.25;;;2.33;;
63587;SDS011;49966;46.896;18.004;2023-08-12T14:01:07;2.83;;;2.40;;
63587;SDS011;49966;46.896;18.004;2023-08-12T14:03:36;2.38;;;2.17;;
63587;SDS011;49966;46.896;18.004;2023-08-12T14:06:06;2.30;;;2.10;;
63587;SDS011;49966;46.896;18.004;2023-08-12T14:08:36;2.65;;;2.13;;
63587;SDS011;49966;46.896;18.004;2023-08-12T14:11:04;2.53;;;2.30;;
63587;SDS011;49966;46.896;18.004;2023-08-12T14:13:32;3.00;;;2.30;;
63587;SDS011;49966;46.896;18.004;2023-08-12T14:16:00;3.47;;;2.20;;
63587;SDS011;49966;46.896;18.004;2023-08-12T14:18:28;3.28;;;2.25;;
63587;SDS011;49966;46.896;18.004;2023-08-12T14:20:57;2.78;;;2.08;;
63587;SDS011;49966;46.896;18.004;2023-08-12T14:23:27;3.42;;;2.17;;
63587;SDS011;49966;46.896;18.004;2023-08-12T14:25:55;3.10;;;2.30;;
63587;SDS011;49966;46.896;18.004;2023-08-12T14:28:23;2.33;;;2.13;;
63587;SDS011;49966;46.896;18.004;2023-08-12T14:30:51;3.40;;;2.40;;
63587;SDS011;49966;46.896;18.004;2023-08-12T14:33:21;3.20;;;2.30;;
63587;SDS011;49966;46.896;18.004;2023-08-12T14:35:51;3.47;;;2.40;;
63587;SDS011;49966;46.896;18.004;2023-08-12T14:38:21;3.63;;;2.50;;
63587;SDS011;49966;46.896;18.004;2023-08-12T14:40:50;4.25;;;2.42;;
63587;SDS011;49966;46.896;18.004;2023-08-12T14:43:18;8.23;;;2.75;;
63587;SDS011;49966;46.896;18.004;2023-08-12T14:45:47;3.40;;;2.35;;
63587;SDS011;49966;46.896;18.004;2023-08-12T14:48:15;3.50;;;2.20;;
63587;SDS011;49966;46.896;18.004;2023-08-12T14:50:44;2.88;;;2.20;;
63587;SDS011;49966;46.896;18.004;2023-08-12T14:53:12;4.70;;;2.47;;